Pagrindinis puslapis
METAR-TAF:

METAR-TAF

Oro uostai :

Sandane, Norvegija

platuma: 61-50N, ilguma: 006-07E, Aukštis: 6 m

Dabartinis oras

Ataskaita buvo paskelbta 41 minutes, ne 03:50 UTC
Vėjas 6 kt iš Vakarų/Šiaurės Vakarų, svyruoja nuo Vakarų ir Šiaurės/Šiaurės Vakarų
Temperatūra 12°C
Drėgmė 94%
Slėgis 1015 hPa
Matomumas 10 km arba daugiau
Mažai debesys ne aukštis 500 ft
Išsisklaidę debesys ne aukštis 1000 ft
Su prošvaistėmis ne aukštis 1500 ft
lietus

METAR: ENSD 250350Z 30006KT 260V340 9999 -SHRA FEW005 SCT010 BKN015 12/11 Q1015 RMK WIND 1138FT 30004KT

Laikas: 06:31 (04:31 UTC)


TAF: trūkstamas

Orai ataskaitas ir orų prognozės (METAR, TAF).

turimą stotys yra geltonos ir raudonos taškus žemėlapyje.

Perkelti pele per norėdami pamatyti stoties vardą.

Tada spustelėkite, norėdami matyti oro stebėjimo ir prognozės.

Norėdami pakeisti žemėlapį: spustelėkite ant žalios mygtukų su juodo kryžiaus žemyn,; žalią mygtuką su brūkšneliu, jei norite nutolinti; arba žalių rodyklių gretimoms žemėlapius.


METAR-TAF: